Time;durP1;ratioP1;P1;durP2;ratioP2;P2;SDS_P1;SDS_P2;PMS_P1;PMS_P2;Temp;Humidity;BMP_temperature;BMP_pressure;BME280_temperature;BME280_humidity;BME280_pressure;Samples;Min_cycle;Max_cycle;Signal;HPM_P1;HPM_P2
2021/12/19 19:16:35;;;;;;;;;;;;;;;5.61;100.00;102653.97;4986553;27;3447410;-75
2021/12/19 19:19:08;;;;;;;;;;;;;;;5.38;100.00;102653.91;5080931;28;19971;-75
2021/12/19 19:21:35;;;;;;;;;;;;;;;5.17;100.00;102655.53;5095046;28;19916;-75
2021/12/19 19:24:06;;;;;;;;;;;;;;;5.04;100.00;102655.09;5073867;28;19952;-76
2021/12/19 19:26:33;;;;;;;;;;;;;;;5.42;100.00;102645.06;5093602;28;20101;-75
2021/12/19 19:29:09;;;;;;;;;;;;;;;5.48;100.00;102633.50;5085571;28;19912;-75
2021/12/19 19:31:35;;;;;;;;;;;;;;;5.46;100.00;102635.31;5083749;28;19927;-75
2021/12/19 19:34:01;;;;;;;;;;;;;;;5.40;100.00;102639.84;5086896;28;20015;-76
2021/12/19 19:36:28;;;;;;;;;;;;;;;5.26;100.00;102639.50;5084873;28;20011;-74
2021/12/19 19:44:24;;;;;;;;;;;;;;;5.50;100.00;102648.25;5025114;28;20622;-75
2021/12/19 19:49:35;;;;;;;13.48;3.42;;;;;;;5.19;100.00;102628.38;5008488;28;20077;-76
2021/12/19 19:52:01;;;;;;;15.88;6.57;;;;;;;5.32;100.00;102633.22;4990683;28;20124;-75
2021/12/19 19:54:28;;;;;;;;;;;;;;;5.08;100.00;102625.28;5022888;28;20065;-73
2021/12/19 19:56:54;;;;;;;;;;;;;;;5.36;100.00;102634.78;4993862;28;19918;-76
2021/12/19 19:59:22;;;;;;;;;;;;;;;5.60;100.00;102638.28;5006824;28;20005;-78
2021/12/19 20:01:51;;;;;;;;;;;;;;;5.47;100.00;102635.25;5022615;28;20311;-75
2021/12/19 20:04:21;;;;;;;13.32;3.25;;;;;;;5.40;100.00;102642.47;5005817;28;19972;-75
2021/12/19 20:06:50;;;;;;;12.60;2.95;;;;;;;5.19;100.00;102638.00;5021364;28;20029;-75
2021/12/19 20:09:16;;;;;;;;;;;;;;;5.11;100.00;102637.41;5021849;28;20100;-77
2021/12/19 20:11:42;;;;;;;11.45;4.38;;;;;;;4.98;100.00;102634.38;5076213;23;19921;-75
2021/12/19 20:14:09;;;;;;;10.32;4.72;;;;;;;4.77;100.00;102583.59;5049784;22;20072;-77
2021/12/19 20:16:36;;;;;;;17.27;4.07;;;;;;;5.07;100.00;102607.03;5053193;22;20112;-76
2021/12/19 20:19:06;;;;;;;16.70;5.38;;;;;;;5.02;100.00;102617.66;5058871;28;20029;-75
2021/12/19 20:21:31;;;;;;;12.43;6.18;;;;;;;5.29;100.00;102621.06;5074406;28;20390;-75
2021/12/19 20:23:58;;;;;;;19.17;7.80;;;;;;;5.18;100.00;102628.47;5056078;28;20020;-74
2021/12/19 20:26:27;;;;;;;13.20;5.05;;;;;;;5.18;100.00;102624.06;5065195;28;20024;-75
2021/12/19 20:28:53;;;;;;;11.93;3.65;;;;;;;5.60;100.00;102635.66;5066173;28;20139;-76
2021/12/19 20:31:19;;;;;;;11.55;2.88;;;;;;;5.53;100.00;102636.81;5063006;22;20387;-78
2021/12/19 20:33:46;;;;;;;12.43;2.45;;;;;;;5.40;100.00;102611.03;5042459;22;20503;-74
2021/12/19 20:36:13;;;;;;;10.00;2.17;;;;;;;5.48;100.00;102628.28;5013512;23;20057;-73
2021/12/19 20:38:40;;;;;;;9.50;2.00;;;;;;;5.54;100.00;102652.50;5235805;22;20031;-75
2021/12/19 20:41:07;;;;;;;8.73;1.50;;;;;;;5.49;100.00;102633.44;4952334;28;20093;-74
2021/12/19 20:43:36;;;;;;;12.98;2.10;;;;;;;5.76;100.00;102659.56;4991713;28;20042;-75
2021/12/19 20:46:07;;;;;;;8.27;1.60;;;;;;;5.19;100.00;102619.69;5015075;28;20045;-75
2021/12/19 20:48:37;;;;;;;12.20;2.10;;;;;;;5.20;100.00;102627.50;5015456;28;20128;-75
2021/12/19 20:51:07;;;;;;;10.32;1.80;;;;;;;5.50;100.00;102650.88;4998468;28;20097;-75
2021/12/19 20:53:42;;;;;;;8.48;1.75;;;;;;;5.35;100.00;102644.41;5010757;28;20071;-74
2021/12/19 20:56:08;;;;;;;7.05;2.00;;;;;;;5.38;100.00;102660.03;5004425;28;20096;-75
2021/12/19 20:58:34;;;;;;;8.60;3.10;;;;;;;5.49;100.00;102638.69;4993440;28;20022;-79
2021/12/19 21:01:00;;;;;;;11.73;3.20;;;;;;;5.28;100.00;102627.22;4998827;28;20056;-75
2021/12/19 21:03:32;;;;;;;11.20;3.08;;;;;;;5.29;100.00;102652.50;5015994;28;20041;-77
2021/12/19 21:05:59;;;;;;;6.80;2.80;;;;;;;5.22;100.00;102636.16;5017580;28;20018;-76
2021/12/19 21:08:28;;;;;;;11.15;3.53;;;;;;;5.54;100.00;102659.47;5015118;28;20021;-76
2021/12/19 21:11:01;;;;;;;6.53;2.08;;;;;;;5.40;100.00;102591.84;4995196;28;20018;-77
2021/12/19 21:13:58;;;;;;;14.18;2.97;;;;;;;5.68;100.00;102651.09;5018834;28;20461;-76
2021/12/19 21:19:45;;;;;;;8.35;1.75;;;;;;;5.75;100.00;102655.25;5019921;28;20030;-77
2021/12/19 21:22:15;;;;;;;11.05;4.00;;;;;;;5.34;100.00;102647.97;4991128;28;20544;-76
2021/12/19 21:24:43;;;;;;;12.80;5.20;;;;;;;5.23;100.00;102621.28;5015158;28;19917;-76
2021/12/19 21:27:18;;;;;;;11.50;3.35;;;;;;;5.49;100.00;102636.06;5015269;28;20030;-76
2021/12/19 21:29:47;;;;;;;9.70;2.00;;;;;;;5.15;100.00;102616.28;5023214;28;20502;-76
2021/12/19 21:32:16;;;;;;;8.48;1.70;;;;;;;5.11;100.00;102650.50;5015621;28;20045;-76
2021/12/19 21:34:45;;;;;;;13.63;2.63;;;;;;;4.99;100.00;102657.88;4996921;28;20086;-77
2021/12/19 21:43:41;;;;;;;16.25;3.20;;;;;;;5.41;100.00;102638.97;5652365;23;20054;-80
2021/12/19 21:46:27;;;;;;;13.98;3.55;;;;;;;5.49;100.00;102638.69;4985554;28;20042;-77
2021/12/19 21:49:26;;;;;;;11.80;3.03;;;;;;;5.41;100.00;102628.47;5017612;28;20034;-77
2021/12/19 21:55:27;;;;;;;12.32;2.85;;;;;;;5.23;100.00;102640.47;5700403;22;20050;-77
2021/12/19 21:58:17;;;;;;;15.82;2.20;;;;;;;4.66;100.00;102583.13;5044294;22;20077;-76
2021/12/19 22:00:43;;;;;;;12.65;2.03;;;;;;;4.85;100.00;102578.09;5002319;28;20496;-76
2021/12/19 22:03:16;;;;;;;16.90;1.92;;;;;;;4.88;100.00;102617.25;5013858;28;20037;-76
2021/12/19 22:08:25;;;;;;;15.50;2.28;;;;;;;4.94;100.00;102619.66;4983003;26;20046;-77
2021/12/19 22:10:52;;;;;;;14.80;2.15;;;;;;;5.25;100.00;102627.31;4999697;28;20319;-78
2021/12/19 22:15:24;;;;;;;21.73;2.38;;;;;;;5.14;100.00;102621.59;4997557;28;20125;-77
2021/12/19 22:16:12;;;;;;;15.93;2.80;;;;;;;5.05;100.00;102619.31;4997745;28;20027;-76
2021/12/19 22:18:41;;;;;;;18.80;2.60;;;;;;;4.93;100.00;102613.59;5002537;28;20030;-77
2021/12/19 22:21:09;;;;;;;19.95;3.15;;;;;;;5.09;100.00;102627.00;4997076;28;20061;-77
2021/12/19 22:23:34;;;;;;;18.52;2.58;;;;;;;4.96;100.00;102612.63;4963861;28;20504;-76
2021/12/19 22:26:00;;;;;;;21.77;3.15;;;;;;;5.14;100.00;102600.66;4978771;28;20034;-76
2021/12/19 22:28:25;;;;;;;19.67;3.50;;;;;;;5.48;100.00;102620.41;4982778;28;20042;-76
2021/12/19 22:31:01;;;;;;;21.90;3.72;;;;;;;5.63;100.00;102622.44;4988713;28;20022;-77
2021/12/19 22:33:29;;;;;;;21.65;4.00;;;;;;;5.68;100.00;102598.69;4964006;28;20538;-77
2021/12/19 22:39:04;;;;;;;25.40;4.97;;;;;;;5.56;100.00;102607.88;4888399;29;20499;-76
2021/12/19 22:41:30;;;;;;;24.88;5.50;;;;;;;5.27;100.00;102608.91;4905366;29;20044;-76
2021/12/19 22:44:05;;;;;;;22.13;4.00;;;;;;;5.22;100.00;102606.47;4937089;29;20032;-77
2021/12/19 22:46:35;;;;;;;20.77;4.68;;;;;;;5.47;100.00;102608.19;4919980;29;20048;-77
2021/12/19 22:49:05;;;;;;;28.13;5.22;;;;;;;5.28;100.00;102605.41;4923620;29;20032;-76
2021/12/19 22:51:34;;;;;;;23.45;4.82;;;;;;;5.23;100.00;102598.56;4908295;29;20443;-76
2021/12/19 22:54:04;;;;;;;26.73;3.60;;;;;;;5.31;100.00;102607.91;4911195;29;20036;-77
2021/12/19 22:56:30;;;;;;;21.63;4.30;;;;;;;5.46;100.00;102590.78;4912062;29;20380;-76
2021/12/19 22:58:58;;;;;;;26.42;3.92;;;;;;;5.66;100.00;102611.88;4927586;29;20028;-76
2021/12/19 23:01:24;;;;;;;26.73;3.80;;;;;;;5.32;100.00;102559.84;4910629;29;20064;-77
2021/12/19 23:03:50;;;;;;;22.15;3.40;;;;;;;5.80;100.00;102572.88;4907136;29;20028;-77
2021/12/19 23:06:16;;;;;;;28.33;3.42;;;;;;;5.86;100.00;102564.78;4904024;29;20135;-78
2021/12/19 23:08:43;;;;;;;22.38;3.67;;;;;;;5.55;100.00;102567.72;4919759;29;20202;-76
2021/12/19 23:11:14;;;;;;;21.40;3.10;;;;;;;5.44;100.00;102607.41;4920165;29;20142;-76
2021/12/19 23:13:45;;;;;;;26.45;3.40;;;;;;;5.36;100.00;102580.66;4935561;29;20181;-77
2021/12/19 23:16:27;;;;;;;24.42;3.05;;;;;;;5.55;100.00;102572.94;4942147;29;20473;-77
2021/12/19 23:18:55;;;;;;;28.95;4.03;;;;;;;5.45;100.00;102597.78;4942076;29;20035;-77
2021/12/19 23:21:22;;;;;;;26.52;4.72;;;;;;;5.78;100.00;102574.69;4957840;29;20367;-76
2021/12/19 23:23:51;;;;;;;29.88;4.95;;;;;;;5.62;100.00;102589.28;4957490;29;20356;-77
2021/12/19 23:26:18;;;;;;;26.92;4.57;;;;;;;5.88;100.00;102582.19;4941779;29;20090;-78
2021/12/19 23:28:44;;;;;;;28.15;4.60;;;;;;;5.68;100.00;102557.63;4942423;28;20052;-76
2021/12/19 23:31:13;;;;;;;25.48;4.43;;;;;;;5.76;100.00;102586.16;4958298;29;20157;-76
2021/12/19 23:34:13;;;;;;;28.77;4.18;;;;;;;5.73;100.00;102581.88;4925515;29;20455;-77
2021/12/19 23:37:11;;;;;;;26.27;3.95;;;;;;;5.79;100.00;102586.03;4978477;28;20234;-77
2021/12/19 23:40:25;;;;;;;34.03;3.63;;;;;;;5.74;100.00;102574.88;4963750;28;20027;-77
2021/12/19 23:42:51;;;;;;;25.75;3.63;;;;;;;5.50;100.00;102584.53;4958499;28;20038;-75
2021/12/19 23:45:20;;;;;;;25.35;3.90;;;;;;;5.78;100.00;102586.94;4960069;28;20115;-76
2021/12/19 23:47:54;;;;;;;20.42;3.00;;;;;;;5.69;100.00;102576.81;4976214;28;20027;-77
2021/12/19 23:50:21;;;;;;;;;;;;;;;5.97;100.00;102571.38;4943761;28;20027;-76
2021/12/19 23:52:48;;;;;;;19.77;2.78;;;;;;;5.94;100.00;102567.13;4962860;28;19925;-76
2021/12/19 23:55:18;;;;;;;28.27;3.40;;;;;;;5.52;100.00;102540.75;4979446;28;20026;-76
2021/12/19 23:57:45;;;;;;;21.35;3.65;;;;;;;5.44;100.00;102530.56;4978560;28;20034;-76
